sensor_id;sensor_type;location;lat;lon;timestamp;P1;durP1;ratioP1;P2;durP2;ratioP2
53971;SDS011;40530;53.062;6.078;2023-04-01T00:01:04;7.40;;;6.63;;
53971;SDS011;40530;53.062;6.078;2023-04-01T00:03:31;9.15;;;6.95;;
53971;SDS011;40530;53.062;6.078;2023-04-01T00:05:58;7.88;;;7.07;;
53971;SDS011;40530;53.062;6.078;2023-04-01T00:08:25;8.27;;;6.80;;
53971;SDS011;40530;53.062;6.078;2023-04-01T00:10:51;8.52;;;6.75;;
53971;SDS011;40530;53.062;6.078;2023-04-01T00:13:18;7.05;;;6.38;;
53971;SDS011;40530;53.062;6.078;2023-04-01T00:15:44;7.95;;;6.35;;
53971;SDS011;40530;53.062;6.078;2023-04-01T00:18:10;7.38;;;6.38;;
53971;SDS011;40530;53.062;6.078;2023-04-01T00:20:37;6.80;;;5.95;;
53971;SDS011;40530;53.062;6.078;2023-04-01T00:23:03;7.85;;;6.13;;
53971;SDS011;40530;53.062;6.078;2023-04-01T00:25:30;11.85;;;6.50;;
53971;SDS011;40530;53.062;6.078;2023-04-01T00:27:56;8.82;;;6.38;;
53971;SDS011;40530;53.062;6.078;2023-04-01T00:30:22;6.95;;;6.25;;
53971;SDS011;40530;53.062;6.078;2023-04-01T00:32:51;8.10;;;5.75;;
53971;SDS011;40530;53.062;6.078;2023-04-01T00:35:17;8.85;;;5.70;;
53971;SDS011;40530;53.062;6.078;2023-04-01T00:37:43;6.45;;;5.80;;
53971;SDS011;40530;53.062;6.078;2023-04-01T00:40:21;7.05;;;6.35;;
53971;SDS011;40530;53.062;6.078;2023-04-01T00:42:47;10.82;;;6.00;;
53971;SDS011;40530;53.062;6.078;2023-04-01T00:45:30;7.60;;;6.55;;
53971;SDS011;40530;53.062;6.078;2023-04-01T00:47:56;7.78;;;6.68;;
53971;SDS011;40530;53.062;6.078;2023-04-01T00:50:25;11.05;;;7.45;;
53971;SDS011;40530;53.062;6.078;2023-04-01T00:52:52;8.60;;;7.20;;
53971;SDS011;40530;53.062;6.078;2023-04-01T00:55:18;9.02;;;7.18;;
53971;SDS011;40530;53.062;6.078;2023-04-01T00:57:45;10.30;;;7.35;;
53971;SDS011;40530;53.062;6.078;2023-04-01T01:00:13;9.63;;;7.38;;
53971;SDS011;40530;53.062;6.078;2023-04-01T01:02:44;8.13;;;6.88;;
53971;SDS011;40530;53.062;6.078;2023-04-01T01:05:14;7.65;;;6.82;;
53971;SDS011;40530;53.062;6.078;2023-04-01T01:07:44;9.98;;;8.10;;
53971;SDS011;40530;53.062;6.078;2023-04-01T01:10:20;10.57;;;7.40;;
53971;SDS011;40530;53.062;6.078;2023-04-01T01:15:40;8.70;;;7.40;;
53971;SDS011;40530;53.062;6.078;2023-04-01T01:18:11;6.50;;;5.88;;
53971;SDS011;40530;53.062;6.078;2023-04-01T01:30:51;7.07;;;6.13;;
53971;SDS011;40530;53.062;6.078;2023-04-01T01:33:24;6.88;;;5.80;;
53971;SDS011;40530;53.062;6.078;2023-04-01T01:35:52;8.07;;;6.22;;
53971;SDS011;40530;53.062;6.078;2023-04-01T01:38:21;8.88;;;6.25;;
53971;SDS011;40530;53.062;6.078;2023-04-01T01:40:48;9.88;;;6.45;;
53971;SDS011;40530;53.062;6.078;2023-04-01T01:43:19;7.68;;;6.15;;
53971;SDS011;40530;53.062;6.078;2023-04-01T01:45:48;9.38;;;6.32;;
53971;SDS011;40530;53.062;6.078;2023-04-01T01:48:15;6.80;;;5.35;;
53971;SDS011;40530;53.062;6.078;2023-04-01T01:50:42;5.90;;;5.15;;
53971;SDS011;40530;53.062;6.078;2023-04-01T01:53:10;5.07;;;4.57;;
53971;SDS011;40530;53.062;6.078;2023-04-01T01:55:38;7.82;;;5.25;;
53971;SDS011;40530;53.062;6.078;2023-04-01T01:58:10;4.57;;;4.18;;
53971;SDS011;40530;53.062;6.078;2023-04-01T02:00:37;4.70;;;4.20;;
53971;SDS011;40530;53.062;6.078;2023-04-01T02:03:03;5.22;;;3.40;;
53971;SDS011;40530;53.062;6.078;2023-04-01T02:05:30;3.35;;;3.05;;
53971;SDS011;40530;53.062;6.078;2023-04-01T02:08:00;3.30;;;2.80;;
53971;SDS011;40530;53.062;6.078;2023-04-01T02:10:28;2.30;;;2.10;;
53971;SDS011;40530;53.062;6.078;2023-04-01T02:12:58;2.25;;;2.05;;
53971;SDS011;40530;53.062;6.078;2023-04-01T02:15:28;1.98;;;1.65;;
53971;SDS011;40530;53.062;6.078;2023-04-01T02:17:56;1.80;;;1.70;;
53971;SDS011;40530;53.062;6.078;2023-04-01T02:20:23;2.70;;;1.77;;
53971;SDS011;40530;53.062;6.078;2023-04-01T02:22:50;2.88;;;1.88;;
53971;SDS011;40530;53.062;6.078;2023-04-01T02:25:21;1.80;;;1.70;;
53971;SDS011;40530;53.062;6.078;2023-04-01T02:27:48;1.73;;;1.63;;
53971;SDS011;40530;53.062;6.078;2023-04-01T02:30:15;1.52;;;1.42;;
53971;SDS011;40530;53.062;6.078;2023-04-01T02:32:42;1.92;;;1.20;;
53971;SDS011;40530;53.062;6.078;2023-04-01T02:35:12;2.25;;;1.27;;
53971;SDS011;40530;53.062;6.078;2023-04-01T02:37:39;3.10;;;1.15;;
53971;SDS011;40530;53.062;6.078;2023-04-01T02:40:10;1.83;;;1.30;;
53971;SDS011;40530;53.062;6.078;2023-04-01T02:42:37;1.50;;;1.40;;
53971;SDS011;40530;53.062;6.078;2023-04-01T02:45:03;2.30;;;1.60;;
53971;SDS011;40530;53.062;6.078;2023-04-01T02:47:30;1.55;;;1.45;;
53971;SDS011;40530;53.062;6.078;2023-04-01T02:49:56;1.73;;;1.63;;
53971;SDS011;40530;53.062;6.078;2023-04-01T02:52:24;1.70;;;1.60;;
53971;SDS011;40530;53.062;6.078;2023-04-01T02:54:50;3.15;;;2.25;;
53971;SDS011;40530;53.062;6.078;2023-04-01T02:57:16;2.63;;;2.38;;
53971;SDS011;40530;53.062;6.078;2023-04-01T02:59:42;3.35;;;2.97;;
53971;SDS011;40530;53.062;6.078;2023-04-01T03:02:08;3.67;;;3.05;;
53971;SDS011;40530;53.062;6.078;2023-04-01T03:04:35;4.55;;;3.97;;
53971;SDS011;40530;53.062;6.078;2023-04-01T03:07:01;6.00;;;4.63;;
53971;SDS011;40530;53.062;6.078;2023-04-01T03:09:27;7.03;;;4.57;;
53971;SDS011;40530;53.062;6.078;2023-04-01T03:11:53;7.68;;;5.88;;
53971;SDS011;40530;53.062;6.078;2023-04-01T03:14:20;6.55;;;5.93;;
53971;SDS011;40530;53.062;6.078;2023-04-01T03:16:46;11.27;;;7.55;;
53971;SDS011;40530;53.062;6.078;2023-04-01T03:19:12;9.65;;;7.78;;
53971;SDS011;40530;53.062;6.078;2023-04-01T03:21:38;10.02;;;8.13;;
53971;SDS011;40530;53.062;6.078;2023-04-01T03:24:04;12.68;;;8.30;;
53971;SDS011;40530;53.062;6.078;2023-04-01T03:26:31;12.43;;;9.07;;
53971;SDS011;40530;53.062;6.078;2023-04-01T03:28:57;13.43;;;8.88;;
53971;SDS011;40530;53.062;6.078;2023-04-01T03:31:23;11.77;;;8.73;;
53971;SDS011;40530;53.062;6.078;2023-04-01T03:33:49;14.07;;;8.52;;
53971;SDS011;40530;53.062;6.078;2023-04-01T03:36:15;13.02;;;8.98;;
53971;SDS011;40530;53.062;6.078;2023-04-01T03:38:42;13.20;;;9.80;;
53971;SDS011;40530;53.062;6.078;2023-04-01T03:41:12;11.05;;;8.60;;
53971;SDS011;40530;53.062;6.078;2023-04-01T03:43:39;10.23;;;9.07;;
53971;SDS011;40530;53.062;6.078;2023-04-01T03:46:05;12.48;;;9.10;;
53971;SDS011;40530;53.062;6.078;2023-04-01T03:48:31;11.30;;;8.80;;
53971;SDS011;40530;53.062;6.078;2023-04-01T03:50:57;12.73;;;9.77;;
53971;SDS011;40530;53.062;6.078;2023-04-01T03:53:23;15.48;;;10.00;;
53971;SDS011;40530;53.062;6.078;2023-04-01T03:55:49;13.88;;;10.13;;
53971;SDS011;40530;53.062;6.078;2023-04-01T03:58:18;15.15;;;10.30;;
53971;SDS011;40530;53.062;6.078;2023-04-01T04:00:45;14.50;;;11.27;;
53971;SDS011;40530;53.062;6.078;2023-04-01T04:03:11;13.57;;;10.25;;
53971;SDS011;40530;53.062;6.078;2023-04-01T04:05:37;16.70;;;12.10;;
53971;SDS011;40530;53.062;6.078;2023-04-01T04:08:03;14.85;;;10.48;;
53971;SDS011;40530;53.062;6.078;2023-04-01T04:10:29;16.73;;;11.38;;
53971;SDS011;40530;53.062;6.078;2023-04-01T04:12:55;15.35;;;11.40;;
53971;SDS011;40530;53.062;6.078;2023-04-01T04:15:22;14.63;;;11.05;;
53971;SDS011;40530;53.062;6.078;2023-04-01T04:17:48;18.35;;;11.68;;
53971;SDS011;40530;53.062;6.078;2023-04-01T04:20:14;15.95;;;11.65;;
53971;SDS011;40530;53.062;6.078;2023-04-01T04:22:40;16.63;;;12.48;;
53971;SDS011;40530;53.062;6.078;2023-04-01T04:25:06;14.98;;;11.38;;
53971;SDS011;40530;53.062;6.078;2023-04-01T04:27:32;17.13;;;11.55;;
53971;SDS011;40530;53.062;6.078;2023-04-01T04:29:58;16.80;;;11.73;;
53971;SDS011;40530;53.062;6.078;2023-04-01T04:32:25;15.38;;;11.10;;
53971;SDS011;40530;53.062;6.078;2023-04-01T04:34:51;13.65;;;10.70;;
53971;SDS011;40530;53.062;6.078;2023-04-01T04:37:17;17.67;;;11.75;;
53971;SDS011;40530;53.062;6.078;2023-04-01T04:39:43;16.88;;;12.38;;
53971;SDS011;40530;53.062;6.078;2023-04-01T04:42:09;15.57;;;12.25;;
53971;SDS011;40530;53.062;6.078;2023-04-01T04:44:35;15.85;;;12.70;;
53971;SDS011;40530;53.062;6.078;2023-04-01T04:47:01;16.90;;;13.13;;
53971;SDS011;40530;53.062;6.078;2023-04-01T04:49:27;21.52;;;12.30;;
53971;SDS011;40530;53.062;6.078;2023-04-01T04:51:53;18.55;;;12.85;;
53971;SDS011;40530;53.062;6.078;2023-04-01T04:54:19;16.13;;;12.85;;
53971;SDS011;40530;53.062;6.078;2023-04-01T04:56:45;17.85;;;12.75;;
53971;SDS011;40530;53.062;6.078;2023-04-01T04:59:11;16.40;;;12.93;;
53971;SDS011;40530;53.062;6.078;2023-04-01T05:01:37;16.33;;;12.60;;
53971;SDS011;40530;53.062;6.078;2023-04-01T05:04:03;17.83;;;13.75;;
53971;SDS011;40530;53.062;6.078;2023-04-01T05:06:30;17.67;;;13.18;;
53971;SDS011;40530;53.062;6.078;2023-04-01T05:08:56;17.52;;;13.73;;
53971;SDS011;40530;53.062;6.078;2023-04-01T05:11:23;27.92;;;14.00;;
53971;SDS011;40530;53.062;6.078;2023-04-01T05:13:51;19.23;;;14.60;;
53971;SDS011;40530;53.062;6.078;2023-04-01T05:16:18;22.05;;;14.23;;
53971;SDS011;40530;53.062;6.078;2023-04-01T05:18:44;17.88;;;14.38;;
53971;SDS011;40530;53.062;6.078;2023-04-01T05:21:11;22.30;;;15.45;;
53971;SDS011;40530;53.062;6.078;2023-04-01T05:23:38;19.67;;;14.10;;
53971;SDS011;40530;53.062;6.078;2023-04-01T05:26:07;20.02;;;14.23;;
53971;SDS011;40530;53.062;6.078;2023-04-01T05:28:33;22.65;;;14.70;;
53971;SDS011;40530;53.062;6.078;2023-04-01T05:31:03;24.13;;;15.57;;
53971;SDS011;40530;53.062;6.078;2023-04-01T05:33:29;20.00;;;14.70;;
53971;SDS011;40530;53.062;6.078;2023-04-01T05:35:56;22.20;;;15.50;;
53971;SDS011;40530;53.062;6.078;2023-04-01T05:38:22;20.75;;;15.45;;
53971;SDS011;40530;53.062;6.078;2023-04-01T05:40:48;21.15;;;15.07;;
53971;SDS011;40530;53.062;6.078;2023-04-01T05:43:14;22.17;;;14.80;;
53971;SDS011;40530;53.062;6.078;2023-04-01T05:45:40;20.50;;;15.45;;
53971;SDS011;40530;53.062;6.078;2023-04-01T05:48:06;22.55;;;15.82;;
53971;SDS011;40530;53.062;6.078;2023-04-01T05:50:32;26.92;;;16.02;;
53971;SDS011;40530;53.062;6.078;2023-04-01T05:52:59;20.35;;;14.70;;
53971;SDS011;40530;53.062;6.078;2023-04-01T05:55:25;22.13;;;14.70;;
53971;SDS011;40530;53.062;6.078;2023-04-01T05:57:51;23.85;;;15.88;;
53971;SDS011;40530;53.062;6.078;2023-04-01T06:00:17;24.20;;;14.73;;
53971;SDS011;40530;53.062;6.078;2023-04-01T06:02:44;24.60;;;16.17;;
53971;SDS011;40530;53.062;6.078;2023-04-01T06:07:38;23.20;;;15.43;;
53971;SDS011;40530;53.062;6.078;2023-04-01T06:10:15;24.38;;;16.30;;
53971;SDS011;40530;53.062;6.078;2023-04-01T06:12:45;25.50;;;16.48;;
53971;SDS011;40530;53.062;6.078;2023-04-01T06:15:29;24.42;;;15.80;;
53971;SDS011;40530;53.062;6.078;2023-04-01T06:20:47;24.58;;;17.05;;
53971;SDS011;40530;53.062;6.078;2023-04-01T06:25:47;26.52;;;16.75;;
53971;SDS011;40530;53.062;6.078;2023-04-01T06:28:23;25.63;;;16.52;;
53971;SDS011;40530;53.062;6.078;2023-04-01T06:33:48;22.10;;;14.80;;
53971;SDS011;40530;53.062;6.078;2023-04-01T06:36:23;24.75;;;15.82;;
53971;SDS011;40530;53.062;6.078;2023-04-01T06:46:47;18.60;;;13.40;;
53971;SDS011;40530;53.062;6.078;2023-04-01T06:49:21;18.27;;;11.38;;
53971;SDS011;40530;53.062;6.078;2023-04-01T06:54:21;18.10;;;12.45;;
53971;SDS011;40530;53.062;6.078;2023-04-01T06:56:52;17.02;;;11.88;;
53971;SDS011;40530;53.062;6.078;2023-04-01T06:59:21;22.02;;;11.77;;
53971;SDS011;40530;53.062;6.078;2023-04-01T07:04:30;16.15;;;11.48;;
53971;SDS011;40530;53.062;6.078;2023-04-01T07:09:43;16.42;;;10.25;;
53971;SDS011;40530;53.062;6.078;2023-04-01T07:14:49;11.45;;;9.13;;
53971;SDS011;40530;53.062;6.078;2023-04-01T07:17:23;9.48;;;7.97;;
53971;SDS011;40530;53.062;6.078;2023-04-01T07:22:38;9.60;;;8.25;;
53971;SDS011;40530;53.062;6.078;2023-04-01T07:25:12;11.63;;;7.95;;
53971;SDS011;40530;53.062;6.078;2023-04-01T07:27:39;12.88;;;9.75;;
53971;SDS011;40530;53.062;6.078;2023-04-01T07:30:15;12.98;;;8.23;;
53971;SDS011;40530;53.062;6.078;2023-04-01T07:32:49;11.52;;;9.15;;
53971;SDS011;40530;53.062;6.078;2023-04-01T07:40:39;15.38;;;11.23;;
53971;SDS011;40530;53.062;6.078;2023-04-01T07:48:25;13.10;;;11.15;;
53971;SDS011;40530;53.062;6.078;2023-04-01T07:53:46;21.20;;;14.32;;
53971;SDS011;40530;53.062;6.078;2023-04-01T08:01:23;18.52;;;14.82;;
53971;SDS011;40530;53.062;6.078;2023-04-01T08:06:37;17.45;;;14.15;;
53971;SDS011;40530;53.062;6.078;2023-04-01T08:09:19;16.23;;;13.85;;
53971;SDS011;40530;53.062;6.078;2023-04-01T08:22:17;16.65;;;14.77;;
53971;SDS011;40530;53.062;6.078;2023-04-01T08:24:46;18.63;;;16.05;;
53971;SDS011;40530;53.062;6.078;2023-04-01T08:27:26;21.17;;;15.90;;
53971;SDS011;40530;53.062;6.078;2023-04-01T08:30:06;23.73;;;17.95;;
53971;SDS011;40530;53.062;6.078;2023-04-01T08:33:00;21.08;;;16.70;;
53971;SDS011;40530;53.062;6.078;2023-04-01T08:35:30;16.65;;;14.45;;
53971;SDS011;40530;53.062;6.078;2023-04-01T08:38:00;16.20;;;14.35;;
53971;SDS011;40530;53.062;6.078;2023-04-01T08:51:04;12.05;;;10.85;;
53971;SDS011;40530;53.062;6.078;2023-04-01T09:12:18;13.70;;;12.30;;
53971;SDS011;40530;53.062;6.078;2023-04-01T09:30:32;16.95;;;14.02;;
53971;SDS011;40530;53.062;6.078;2023-04-01T09:38:14;15.30;;;12.45;;
53971;SDS011;40530;53.062;6.078;2023-04-01T09:46:00;13.52;;;12.13;;
53971;SDS011;40530;53.062;6.078;2023-04-01T09:53:48;11.23;;;9.38;;
53971;SDS011;40530;53.062;6.078;2023-04-01T09:59:08;9.93;;;8.57;;
53971;SDS011;40530;53.062;6.078;2023-04-01T10:12:26;7.05;;;6.35;;
53971;SDS011;40530;53.062;6.078;2023-04-01T10:17:48;7.15;;;6.30;;
53971;SDS011;40530;53.062;6.078;2023-04-01T10:23:22;5.88;;;5.30;;
53971;SDS011;40530;53.062;6.078;2023-04-01T10:33:56;6.28;;;5.22;;
53971;SDS011;40530;53.062;6.078;2023-04-01T10:39:26;8.13;;;4.88;;
53971;SDS011;40530;53.062;6.078;2023-04-01T10:44:41;5.28;;;4.78;;
53971;SDS011;40530;53.062;6.078;2023-04-01T10:47:27;4.97;;;4.00;;
53971;SDS011;40530;53.062;6.078;2023-04-01T10:58:13;6.40;;;4.22;;
53971;SDS011;40530;53.062;6.078;2023-04-01T11:08:24;6.57;;;4.10;;
53971;SDS011;40530;53.062;6.078;2023-04-01T11:26:52;6.57;;;3.45;;
53971;SDS011;40530;53.062;6.078;2023-04-01T11:29:43;7.13;;;3.00;;
53971;SDS011;40530;53.062;6.078;2023-04-01T11:35:00;3.00;;;2.70;;
53971;SDS011;40530;53.062;6.078;2023-04-01T11:45:46;2.50;;;2.28;;
53971;SDS011;40530;53.062;6.078;2023-04-01T11:51:00;3.58;;;2.60;;
53971;SDS011;40530;53.062;6.078;2023-04-01T11:59:09;2.33;;;2.13;;
53971;SDS011;40530;53.062;6.078;2023-04-01T12:04:23;3.17;;;2.20;;
53971;SDS011;40530;53.062;6.078;2023-04-01T12:10:59;3.83;;;1.88;;
53971;SDS011;40530;53.062;6.078;2023-04-01T12:13:31;6.13;;;2.72;;
53971;SDS011;40530;53.062;6.078;2023-04-01T12:31:29;2.90;;;2.05;;
53971;SDS011;40530;53.062;6.078;2023-04-01T12:41:54;2.65;;;1.88;;
53971;SDS011;40530;53.062;6.078;2023-04-01T12:44:40;4.57;;;1.60;;
53971;SDS011;40530;53.062;6.078;2023-04-01T12:47:19;2.83;;;1.67;;
53971;SDS011;40530;53.062;6.078;2023-04-01T12:55:55;3.20;;;1.80;;
53971;SDS011;40530;53.062;6.078;2023-04-01T12:58:10;2.00;;;1.80;;
53971;SDS011;40530;53.062;6.078;2023-04-01T13:17:10;2.35;;;1.70;;
53971;SDS011;40530;53.062;6.078;2023-04-01T13:19:58;1.92;;;1.60;;
53971;SDS011;40530;53.062;6.078;2023-04-01T13:28:48;3.95;;;1.63;;
53971;SDS011;40530;53.062;6.078;2023-04-01T13:31:24;2.92;;;2.05;;
53971;SDS011;40530;53.062;6.078;2023-04-01T13:56:00;2.45;;;1.60;;
53971;SDS011;40530;53.062;6.078;2023-04-01T14:06:27;3.08;;;2.08;;
53971;SDS011;40530;53.062;6.078;2023-04-01T14:15:35;2.50;;;1.55;;
53971;SDS011;40530;53.062;6.078;2023-04-01T14:56:01;3.50;;;1.25;;
53971;SDS011;40530;53.062;6.078;2023-04-01T14:58:47;1.08;;;0.95;;
53971;SDS011;40530;53.062;6.078;2023-04-01T15:21:02;2.88;;;1.15;;
53971;SDS011;40530;53.062;6.078;2023-04-01T15:26:12;2.85;;;1.88;;
53971;SDS011;40530;53.062;6.078;2023-04-01T15:28:40;6.65;;;2.78;;
53971;SDS011;40530;53.062;6.078;2023-04-01T15:31:29;2.45;;;1.25;;
53971;SDS011;40530;53.062;6.078;2023-04-01T15:34:06;3.22;;;1.50;;
53971;SDS011;40530;53.062;6.078;2023-04-01T15:42:07;3.72;;;1.20;;
53971;SDS011;40530;53.062;6.078;2023-04-01T15:49:55;3.20;;;1.75;;
53971;SDS011;40530;53.062;6.078;2023-04-01T15:52:41;3.03;;;1.50;;
53971;SDS011;40530;53.062;6.078;2023-04-01T16:00:54;4.53;;;2.97;;
53971;SDS011;40530;53.062;6.078;2023-04-01T16:19:30;5.85;;;2.63;;
53971;SDS011;40530;53.062;6.078;2023-04-01T16:22:00;5.30;;;3.75;;
53971;SDS011;40530;53.062;6.078;2023-04-01T16:27:14;5.05;;;3.25;;
53971;SDS011;40530;53.062;6.078;2023-04-01T16:29:47;8.02;;;3.03;;
53971;SDS011;40530;53.062;6.078;2023-04-01T16:32:18;7.80;;;3.33;;
53971;SDS011;40530;53.062;6.078;2023-04-01T16:37:14;6.50;;;3.50;;
53971;SDS011;40530;53.062;6.078;2023-04-01T16:45:01;5.00;;;3.90;;
53971;SDS011;40530;53.062;6.078;2023-04-01T16:47:32;5.82;;;3.05;;
53971;SDS011;40530;53.062;6.078;2023-04-01T16:50:13;7.03;;;3.80;;
53971;SDS011;40530;53.062;6.078;2023-04-01T16:52:43;8.82;;;3.70;;
53971;SDS011;40530;53.062;6.078;2023-04-01T16:55:17;8.07;;;3.45;;
53971;SDS011;40530;53.062;6.078;2023-04-01T16:57:49;15.45;;;8.40;;
53971;SDS011;40530;53.062;6.078;2023-04-01T17:00:23;16.02;;;8.82;;
53971;SDS011;40530;53.062;6.078;2023-04-01T17:02:52;6.60;;;3.63;;
53971;SDS011;40530;53.062;6.078;2023-04-01T17:05:34;9.68;;;3.83;;
53971;SDS011;40530;53.062;6.078;2023-04-01T17:17:19;7.78;;;4.05;;
53971;SDS011;40530;53.062;6.078;2023-04-01T17:19:56;8.05;;;3.92;;
53971;SDS011;40530;53.062;6.078;2023-04-01T17:22:40;9.23;;;4.50;;
53971;SDS011;40530;53.062;6.078;2023-04-01T17:30:54;9.50;;;5.53;;
53971;SDS011;40530;53.062;6.078;2023-04-01T17:38:55;8.15;;;4.03;;
53971;SDS011;40530;53.062;6.078;2023-04-01T17:42:06;13.95;;;4.57;;
53971;SDS011;40530;53.062;6.078;2023-04-01T18:02:38;8.85;;;4.75;;
53971;SDS011;40530;53.062;6.078;2023-04-01T18:08:05;12.88;;;5.07;;
53971;SDS011;40530;53.062;6.078;2023-04-01T18:10:51;11.38;;;4.80;;
53971;SDS011;40530;53.062;6.078;2023-04-01T18:15:53;10.55;;;4.60;;
53971;SDS011;40530;53.062;6.078;2023-04-01T18:18:44;8.57;;;4.68;;
53971;SDS011;40530;53.062;6.078;2023-04-01T18:23:43;9.95;;;4.47;;
53971;SDS011;40530;53.062;6.078;2023-04-01T18:26:14;11.73;;;4.82;;
53971;SDS011;40530;53.062;6.078;2023-04-01T18:52:55;9.98;;;4.72;;
53971;SDS011;40530;53.062;6.078;2023-04-01T18:58:33;9.52;;;4.38;;
53971;SDS011;40530;53.062;6.078;2023-04-01T19:01:33;7.85;;;4.65;;
53971;SDS011;40530;53.062;6.078;2023-04-01T19:06:55;8.60;;;4.00;;
53971;SDS011;40530;53.062;6.078;2023-04-01T19:09:47;9.73;;;4.40;;
53971;SDS011;40530;53.062;6.078;2023-04-01T19:20:29;12.38;;;5.70;;
53971;SDS011;40530;53.062;6.078;2023-04-01T19:23:12;9.98;;;5.03;;
53971;SDS011;40530;53.062;6.078;2023-04-01T19:25:46;11.90;;;5.75;;
53971;SDS011;40530;53.062;6.078;2023-04-01T19:38:41;10.90;;;4.85;;
53971;SDS011;40530;53.062;6.078;2023-04-01T19:43:58;16.33;;;6.85;;
53971;SDS011;40530;53.062;6.078;2023-04-01T19:46:27;10.75;;;5.97;;
53971;SDS011;40530;53.062;6.078;2023-04-01T19:56:39;14.18;;;6.00;;
53971;SDS011;40530;53.062;6.078;2023-04-01T19:59:18;10.93;;;4.93;;
53971;SDS011;40530;53.062;6.078;2023-04-01T20:02:00;6.97;;;4.82;;
53971;SDS011;40530;53.062;6.078;2023-04-01T20:04:28;9.63;;;5.82;;
53971;SDS011;40530;53.062;6.078;2023-04-01T20:09:45;10.35;;;4.63;;
53971;SDS011;40530;53.062;6.078;2023-04-01T20:12:20;10.43;;;4.93;;
53971;SDS011;40530;53.062;6.078;2023-04-01T20:17:59;13.05;;;5.10;;
53971;SDS011;40530;53.062;6.078;2023-04-01T20:20:29;11.15;;;5.30;;
53971;SDS011;40530;53.062;6.078;2023-04-01T20:23:07;12.23;;;5.43;;
53971;SDS011;40530;53.062;6.078;2023-04-01T20:25:50;9.25;;;4.85;;
53971;SDS011;40530;53.062;6.078;2023-04-01T20:43:57;9.05;;;5.47;;
53971;SDS011;40530;53.062;6.078;2023-04-01T20:51:45;12.77;;;4.90;;
53971;SDS011;40530;53.062;6.078;2023-04-01T20:54:21;10.32;;;5.05;;
53971;SDS011;40530;53.062;6.078;2023-04-01T20:56:57;9.65;;;4.60;;
53971;SDS011;40530;53.062;6.078;2023-04-01T20:59:33;10.35;;;4.80;;
53971;SDS011;40530;53.062;6.078;2023-04-01T21:07:29;12.50;;;4.88;;
53971;SDS011;40530;53.062;6.078;2023-04-01T21:17:58;17.20;;;5.03;;
53971;SDS011;40530;53.062;6.078;2023-04-01T21:20:38;7.65;;;4.47;;
53971;SDS011;40530;53.062;6.078;2023-04-01T21:25:53;10.40;;;3.92;;
53971;SDS011;40530;53.062;6.078;2023-04-01T21:31:21;11.88;;;4.40;;
53971;SDS011;40530;53.062;6.078;2023-04-01T21:52:19;9.27;;;3.75;;
53971;SDS011;40530;53.062;6.078;2023-04-01T22:03:14;9.73;;;4.00;;
53971;SDS011;40530;53.062;6.078;2023-04-01T22:11:08;10.27;;;4.32;;
53971;SDS011;40530;53.062;6.078;2023-04-01T22:13:45;10.40;;;3.70;;
53971;SDS011;40530;53.062;6.078;2023-04-01T22:16:27;8.02;;;3.83;;
53971;SDS011;40530;53.062;6.078;2023-04-01T22:19:03;11.43;;;3.80;;
53971;SDS011;40530;53.062;6.078;2023-04-01T22:29:31;10.50;;;3.17;;
53971;SDS011;40530;53.062;6.078;2023-04-01T22:32:01;11.98;;;3.75;;
53971;SDS011;40530;53.062;6.078;2023-04-01T22:37:18;6.55;;;3.20;;
53971;SDS011;40530;53.062;6.078;2023-04-01T22:40:06;9.25;;;4.22;;
53971;SDS011;40530;53.062;6.078;2023-04-01T22:47:46;18.13;;;4.18;;
53971;SDS011;40530;53.062;6.078;2023-04-01T22:50:20;8.10;;;4.68;;
53971;SDS011;40530;53.062;6.078;2023-04-01T22:52:48;12.45;;;4.38;;
53971;SDS011;40530;53.062;6.078;2023-04-01T22:55:26;12.38;;;4.00;;
53971;SDS011;40530;53.062;6.078;2023-04-01T23:00:35;8.00;;;3.42;;
53971;SDS011;40530;53.062;6.078;2023-04-01T23:05:34;11.60;;;4.35;;
53971;SDS011;40530;53.062;6.078;2023-04-01T23:10:41;6.78;;;2.90;;
53971;SDS011;40530;53.062;6.078;2023-04-01T23:13:10;8.82;;;3.08;;
53971;SDS011;40530;53.062;6.078;2023-04-01T23:15:38;8.98;;;3.95;;
53971;SDS011;40530;53.062;6.078;2023-04-01T23:25:53;5.30;;;2.35;;
53971;SDS011;40530;53.062;6.078;2023-04-01T23:28:39;14.32;;;3.78;;
53971;SDS011;40530;53.062;6.078;2023-04-01T23:31:24;12.88;;;3.03;;
53971;SDS011;40530;53.062;6.078;2023-04-01T23:33:57;8.77;;;3.28;;
53971;SDS011;40530;53.062;6.078;2023-04-01T23:36:24;12.57;;;3.53;;
53971;SDS011;40530;53.062;6.078;2023-04-01T23:38:50;6.95;;;2.60;;
53971;SDS011;40530;53.062;6.078;2023-04-01T23:41:20;4.65;;;2.45;;
53971;SDS011;40530;53.062;6.078;2023-04-01T23:44:04;5.53;;;2.92;;
53971;SDS011;40530;53.062;6.078;2023-04-01T23:46:31;10.02;;;4.00;;
53971;SDS011;40530;53.062;6.078;2023-04-01T23:48:59;7.85;;;2.85;;
53971;SDS011;40530;53.062;6.078;2023-04-01T23:51:27;5.22;;;2.53;;
53971;SDS011;40530;53.062;6.078;2023-04-01T23:53:57;9.23;;;2.90;;
53971;SDS011;40530;53.062;6.078;2023-04-01T23:56:33;7.30;;;2.97;;
53971;SDS011;40530;53.062;6.078;2023-04-01T23:58:59;13.52;;;2.63;;
